Time;durP1;ratioP1;P1;durP2;ratioP2;P2;SDS_P1;SDS_P2;PMS_P1;PMS_P2;Temp;Humidity;BMP_temperature;BMP_pressure;BME280_temperature;BME280_humidity;BME280_pressure;Samples;Min_cycle;Max_cycle;Signal;HPM_P1;HPM_P2
2022/06/21 00:01:00;;;;;;;1.85;1.35;;;;;;;10.85;86.36;100113.56;5026429;28;20133;-78
2022/06/21 00:03:26;;;;;;;1.55;1.30;;;;;;;10.80;86.26;100110.91;5015069;28;20518;-78
2022/06/21 00:05:53;;;;;;;2.42;1.52;;;;;;;10.81;86.88;100115.28;5034836;28;20107;-78
2022/06/21 00:08:35;;;;;;;1.48;1.38;;;;;;;10.81;86.71;100112.53;5019657;28;20051;-78
2022/06/21 00:11:02;;;;;;;2.95;1.80;;;;;;;10.83;87.69;100110.31;5048960;28;20037;-77
2022/06/21 00:13:33;;;;;;;2.78;1.50;;;;;;;10.85;87.92;100111.63;5049690;28;20067;-77
2022/06/21 00:16:02;;;;;;;3.13;1.58;;;;;;;10.83;87.81;100110.31;5017757;28;20614;-78
2022/06/21 00:18:29;;;;;;;2.78;1.70;;;;;;;10.85;87.27;100110.81;5034660;28;20574;-78
2022/06/21 00:20:55;;;;;;;1.58;1.40;;;;;;;10.85;87.39;100100.66;5030298;28;20037;-78
2022/06/21 00:23:24;;;;;;;2.80;1.35;;;;;;;10.90;87.70;100107.19;5045979;28;20040;-78
2022/06/21 00:25:50;;;;;;;2.80;1.70;;;;;;;10.99;87.72;100105.41;5053076;28;20099;-78
2022/06/21 00:28:16;;;;;;;3.35;1.70;;;;;;;10.98;87.84;100101.84;5034516;28;20037;-77
2022/06/21 00:30:43;;;;;;;2.05;1.80;;;;;;;11.00;87.87;100102.38;5015800;28;20072;-77
2022/06/21 00:33:11;;;;;;;2.38;1.67;;;;;;;11.04;87.47;100089.66;5031518;28;21096;-77
2022/06/21 00:35:37;;;;;;;1.80;1.65;;;;;;;11.07;87.77;100094.56;5026438;28;20045;-77
2022/06/21 00:38:03;;;;;;;1.83;1.50;;;;;;;11.10;86.87;100088.47;5027657;28;20098;-77
2022/06/21 00:40:33;;;;;;;1.77;1.67;;;;;;;11.09;86.98;100089.59;5049732;28;20416;-78
2022/06/21 00:42:59;;;;;;;1.42;1.33;;;;;;;11.13;86.64;100087.91;5048586;28;20445;-77
2022/06/21 00:45:40;;;;;;;1.30;1.20;;;;;;;11.15;87.37;100087.59;5019178;28;20041;-78
2022/06/21 00:48:10;;;;;;;3.15;1.52;;;;;;;11.14;86.96;100078.53;5038940;28;20427;-78
2022/06/21 00:50:40;;;;;;;2.65;1.50;;;;;;;11.12;86.30;100080.78;5031415;28;20492;-78
2022/06/21 00:53:17;;;;;;;1.65;1.55;;;;;;;11.11;86.57;100081.91;5031541;28;20131;-78
2022/06/21 00:56:13;;;;;;;1.90;1.40;;;;;;;11.05;85.97;100088.56;5030007;28;20041;-77
2022/06/21 00:58:39;;;;;;;1.60;1.50;;;;;;;11.02;86.51;100075.44;5029159;28;20049;-77
2022/06/21 01:01:06;;;;;;;3.80;1.40;;;;;;;11.00;86.21;100079.59;5006888;28;20132;-78
2022/06/21 01:03:36;;;;;;;1.75;1.48;;;;;;;10.99;86.29;100078.78;5025273;28;20056;-78
2022/06/21 01:06:04;;;;;;;1.85;1.70;;;;;;;11.07;86.01;100064.38;5027900;28;20096;-77
2022/06/21 01:08:34;;;;;;;2.15;1.50;;;;;;;11.15;85.62;100063.69;5032872;28;20420;-78
2022/06/21 01:11:05;;;;;;;2.17;1.40;;;;;;;11.21;86.05;100063.59;5015545;28;20038;-77
2022/06/21 01:13:33;;;;;;;1.60;1.50;;;;;;;11.27;85.76;100062.41;5011196;28;20043;-78
2022/06/21 01:15:59;;;;;;;2.05;1.70;;;;;;;11.27;85.70;100067.91;5045282;28;20132;-78
2022/06/21 01:18:26;;;;;;;3.58;1.52;;;;;;;11.24;85.54;100066.56;5042609;28;20149;-78
2022/06/21 01:20:54;;;;;;;2.53;1.42;;;;;;;11.26;84.53;100066.25;5030813;28;20032;-76
2022/06/21 01:23:32;;;;;;;4.90;1.40;;;;;;;11.30;85.16;100059.09;5034420;28;20080;-78
2022/06/21 01:26:10;;;;;;;1.80;1.42;;;;;;;11.30;85.04;100053.59;5034622;28;20044;-77
2022/06/21 01:28:36;;;;;;;2.13;1.53;;;;;;;11.39;84.24;100057.25;5006976;28;20037;-77
2022/06/21 01:31:02;;;;;;;4.47;1.70;;;;;;;11.45;84.21;100053.31;5038845;28;20283;-77
2022/06/21 01:33:40;;;;;;;3.75;1.60;;;;;;;11.47;83.91;100056.59;5050164;28;20044;-77
2022/06/21 01:36:11;;;;;;;5.43;1.63;;;;;;;11.52;83.81;100059.25;5030080;28;20045;-78
2022/06/21 01:38:51;;;;;;;2.95;1.45;;;;;;;11.53;83.68;100054.56;5028339;28;20033;-78
2022/06/21 01:41:21;;;;;;;3.22;1.33;;;;;;;11.50;83.22;100057.91;5027345;28;20099;-77
2022/06/21 01:43:48;;;;;;;3.10;1.58;;;;;;;11.49;82.78;100057.09;5014690;28;20116;-77
2022/06/21 01:46:17;;;;;;;3.20;1.38;;;;;;;11.55;82.57;100068.81;5025320;28;20041;-77
2022/06/21 01:48:50;;;;;;;2.72;1.83;;;;;;;11.56;83.04;100067.69;5050098;28;20511;-77
2022/06/21 01:51:26;;;;;;;2.95;1.40;;;;;;;11.55;82.92;100061.38;5045338;28;20049;-77
2022/06/21 01:53:52;;;;;;;5.50;2.00;;;;;;;11.58;82.50;100062.69;5033324;28;20510;-77
2022/06/21 01:56:23;;;;;;;2.22;1.73;;;;;;;11.68;83.03;100066.09;5044913;28;20044;-78
2022/06/21 01:59:04;;;;;;;1.92;1.58;;;;;;;11.85;82.78;100051.81;5028539;28;20057;-77
2022/06/21 02:01:45;;;;;;;5.32;1.92;;;;;;;11.90;82.50;100053.63;5021599;28;20032;-77
2022/06/21 02:04:14;;;;;;;3.25;1.80;;;;;;;12.01;82.01;100057.81;5021753;28;20645;-78
2022/06/21 02:06:42;;;;;;;5.57;2.08;;;;;;;12.10;81.82;100049.66;5030943;28;20040;-78
2022/06/21 02:09:24;;;;;;;3.90;1.55;;;;;;;12.18;81.10;100054.47;5029718;28;20041;-77
2022/06/21 02:12:11;;;;;;;2.53;1.80;;;;;;;12.29;80.04;100051.19;5039306;28;20043;-78
2022/06/21 02:14:42;;;;;;;2.28;1.42;;;;;;;12.31;79.16;100054.44;5049453;28;20143;-77
2022/06/21 02:17:16;;;;;;;2.95;1.90;;;;;;;12.37;79.57;100049.66;5024268;28;20127;-77
2022/06/21 02:19:44;;;;;;;1.83;1.50;;;;;;;12.44;78.92;100052.00;5008846;28;20034;-77
2022/06/21 02:22:12;;;;;;;2.20;1.58;;;;;;;12.52;77.99;100045.78;5032657;28;20037;-77
2022/06/21 02:24:38;;;;;;;2.95;1.67;;;;;;;12.63;78.07;100052.66;5051204;28;20396;-77
2022/06/21 02:27:04;;;;;;;2.47;1.80;;;;;;;12.75;77.57;100054.88;5037633;28;20499;-77
2022/06/21 02:29:30;;;;;;;1.90;1.58;;;;;;;12.89;76.42;100047.41;5035147;28;20036;-77
2022/06/21 02:31:57;;;;;;;2.63;1.45;;;;;;;12.92;75.89;100053.09;5019520;28;20044;-77
2022/06/21 02:34:30;;;;;;;4.30;1.70;;;;;;;12.96;75.88;100054.09;5031412;28;20037;-77
2022/06/21 02:36:58;;;;;;;1.35;1.25;;;;;;;13.04;75.01;100043.50;5044718;28;20099;-77
2022/06/21 02:39:26;;;;;;;1.70;1.60;;;;;;;13.13;74.30;100047.09;5032892;28;20124;-78
2022/06/21 02:42:04;;;;;;;2.00;1.60;;;;;;;13.28;73.71;100038.50;5022810;28;20045;-77
2022/06/21 02:44:39;;;;;;;1.67;1.58;;;;;;;13.37;73.48;100039.38;5027652;28;20087;-77
2022/06/21 02:47:15;;;;;;;1.20;1.10;;;;;;;13.46;72.05;100045.75;5023640;28;20045;-78
2022/06/21 02:49:48;;;;;;;1.23;1.13;;;;;;;13.58;71.47;100047.94;5018036;28;20037;-77
2022/06/21 02:52:19;;;;;;;1.63;1.50;;;;;;;13.55;71.10;100043.88;5037135;28;20073;-77
2022/06/21 02:54:50;;;;;;;1.45;1.33;;;;;;;13.64;70.29;100048.63;5026403;28;20103;-76
2022/06/21 02:57:39;;;;;;;1.95;1.60;;;;;;;13.69;70.68;100051.22;5022654;28;20167;-77
2022/06/21 03:00:12;;;;;;;3.08;1.70;;;;;;;13.75;69.70;100047.22;5035321;28;20060;-77
2022/06/21 03:02:38;;;;;;;1.40;1.20;;;;;;;13.74;69.30;100053.88;4998560;28;20064;-77
2022/06/21 03:05:06;;;;;;;1.25;1.10;;;;;;;13.69;68.01;100054.78;5033292;28;20415;-76
2022/06/21 03:07:36;;;;;;;1.42;1.20;;;;;;;13.72;68.12;100051.44;5048148;28;20102;-76
2022/06/21 03:10:03;;;;;;;1.67;1.40;;;;;;;13.79;67.66;100048.22;5030249;28;20522;-76
2022/06/21 03:12:33;;;;;;;1.75;1.30;;;;;;;13.88;67.52;100052.66;5050665;28;20087;-76
2022/06/21 03:15:02;;;;;;;1.52;1.15;;;;;;;14.00;67.36;100052.03;5037503;28;20033;-77
2022/06/21 03:17:37;;;;;;;1.05;0.95;;;;;;;14.29;66.81;100051.50;5057510;28;20048;-77
2022/06/21 03:20:05;;;;;;;1.35;1.25;;;;;;;14.41;66.01;100051.69;5011429;28;20044;-77
2022/06/21 03:22:33;;;;;;;1.33;1.13;;;;;;;14.37;65.70;100049.88;5031041;28;20051;-77
2022/06/21 03:25:03;;;;;;;2.03;1.30;;;;;;;14.41;65.81;100059.97;5036787;28;20041;-77
2022/06/21 03:27:52;;;;;;;1.27;1.00;;;;;;;14.42;64.06;100063.56;5036741;28;20387;-77
2022/06/21 03:30:20;;;;;;;1.50;1.20;;;;;;;14.38;64.83;100062.53;5031047;28;20040;-77
2022/06/21 03:32:46;;;;;;;1.92;1.15;;;;;;;14.48;64.71;100057.59;5033721;28;20033;-77
2022/06/21 03:35:14;;;;;;;2.33;1.05;;;;;;;14.63;64.09;100056.31;5049006;28;20116;-77
2022/06/21 03:37:41;;;;;;;1.55;1.42;;;;;;;14.84;64.15;100063.97;5031003;28;20120;-77
2022/06/21 03:42:55;;;;;;;2.13;1.60;;;;;;;15.14;63.10;100060.25;5034178;28;20103;-77
2022/06/21 03:45:26;;;;;;;3.40;1.52;;;;;;;15.14;62.40;100065.78;5048095;28;20036;-76
2022/06/21 03:48:09;;;;;;;2.58;1.50;;;;;;;15.25;61.96;100072.59;5029581;28;20044;-76
2022/06/21 03:50:40;;;;;;;2.28;1.42;;;;;;;15.37;61.67;100074.69;5031409;28;20041;-77
2022/06/21 03:53:29;;;;;;;2.50;1.42;;;;;;;15.45;60.98;100071.13;5013899;28;20040;-77
2022/06/21 03:56:12;;;;;;;5.38;2.05;;;;;;;15.53;61.22;100072.25;5023834;28;20037;-76
2022/06/21 03:59:02;;;;;;;2.92;1.73;;;;;;;15.63;61.13;100063.63;5048659;28;20454;-77
2022/06/21 04:01:38;;;;;;;2.03;1.38;;;;;;;15.83;59.90;100065.69;5031181;28;20094;-76
2022/06/21 04:04:16;;;;;;;2.35;1.42;;;;;;;15.92;59.92;100066.47;5032424;28;20037;-76
2022/06/21 04:07:10;;;;;;;1.90;0.93;;;;;;;15.94;59.38;100078.00;5028079;28;20068;-76
2022/06/21 04:10:06;;;;;;;1.70;1.48;;;;;;;16.04;59.30;100067.75;5034706;28;20041;-77
2022/06/21 04:12:36;;;;;;;2.10;1.58;;;;;;;15.94;59.13;100063.38;5048734;28;20044;-77
2022/06/21 04:15:35;;;;;;;3.00;1.25;;;;;;;15.85;59.51;100066.19;5029258;28;20037;-77
2022/06/21 04:18:01;;;;;;;;;;;;;;;15.69;59.48;100067.84;5013721;28;20037;-77
2022/06/21 04:20:28;;;;;;;1.45;1.10;;;;;;;15.42;60.29;100060.69;5045619;28;20362;-75
2022/06/21 04:22:57;;;;;;;1.98;0.90;;;;;;;15.26;59.81;100070.63;5048510;28;20043;-75
2022/06/21 04:25:25;;;;;;;;;;;;;;;15.02;61.00;100049.03;5047472;28;20112;-75
2022/06/21 04:28:00;;;;;;;2.22;1.20;;;;;;;15.01;61.23;100050.97;5023176;28;19924;-75
2022/06/21 04:30:32;;;;;;;2.90;1.27;;;;;;;15.00;61.47;100062.38;5050187;28;20040;-75
2022/06/21 04:33:06;;;;;;;1.95;1.20;;;;;;;14.87;61.88;100061.38;5031207;28;20064;-75
2022/06/21 04:35:36;;;;;;;2.00;1.10;;;;;;;15.01;61.91;100066.75;5046333;28;20455;-76
2022/06/21 04:38:10;;;;;;;1.20;1.10;;;;;;;15.25;61.40;100067.06;5028659;28;20047;-75
2022/06/21 04:40:46;;;;;;;2.60;1.13;;;;;;;15.38;60.95;100068.84;5039815;28;20409;-76
2022/06/21 04:43:35;;;;;;;0.93;0.93;;;;;;;15.54;60.31;100071.09;5023588;28;20076;-75
2022/06/21 04:46:05;;;;;;;1.85;1.30;;;;;;;15.58;60.54;100063.75;5040754;28;20480;-75
2022/06/21 04:48:38;;;;;;;1.48;1.13;;;;;;;15.81;60.35;100059.69;5032987;28;20044;-75
2022/06/21 04:51:24;;;;;;;1.20;1.10;;;;;;;16.14;59.23;100064.59;5014216;28;20409;-75
2022/06/21 04:54:00;;;;;;;1.88;1.40;;;;;;;16.21;58.80;100071.25;5033318;28;20045;-75
2022/06/21 04:56:51;;;;;;;2.50;1.15;;;;;;;16.18;58.70;100054.50;5045728;28;20071;-76
2022/06/21 04:59:23;;;;;;;1.55;1.10;;;;;;;16.08;58.28;100054.84;5038322;28;20139;-76
2022/06/21 05:01:49;;;;;;;1.30;1.20;;;;;;;16.07;58.25;100051.28;5031180;28;20507;-77
2022/06/21 05:04:27;;;;;;;2.15;1.30;;;;;;;16.04;58.70;100057.47;5046486;28;20120;-76
2022/06/21 05:06:56;;;;;;;1.30;1.10;;;;;;;16.24;58.63;100061.47;5030307;28;20038;-76
2022/06/21 05:09:24;;;;;;;1.30;1.20;;;;;;;16.55;57.92;100070.25;5019143;28;20041;-77
2022/06/21 05:12:23;;;;;;;1.70;1.00;;;;;;;16.63;57.74;100060.25;5045281;28;20503;-75
2022/06/21 05:14:52;;;;;;;1.95;1.38;;;;;;;16.79;57.42;100071.59;5007280;28;20080;-77
2022/06/21 05:17:19;;;;;;;1.83;1.00;;;;;;;16.68;57.31;100068.41;5015011;28;20416;-77
2022/06/21 05:19:51;;;;;;;1.13;0.90;;;;;;;16.50;57.73;100059.38;5015431;28;20431;-77
2022/06/21 05:22:34;;;;;;;1.60;1.50;;;;;;;16.47;57.39;100056.44;5015123;28;20087;-77
2022/06/21 05:25:00;;;;;;;2.38;1.30;;;;;;;16.44;58.33;100062.66;5032999;28;20041;-77
2022/06/21 05:27:28;;;;;;;1.75;1.30;;;;;;;16.44;57.67;100082.84;5032740;28;20043;-77
2022/06/21 05:30:16;;;;;;;1.20;1.10;;;;;;;16.45;57.95;100076.16;5015325;28;20071;-77
2022/06/21 05:32:56;;;;;;;2.45;1.10;;;;;;;16.60;57.81;100072.00;5019777;28;20083;-77
2022/06/21 05:35:25;;;;;;;1.27;0.90;;;;;;;16.60;57.47;100069.25;5032638;28;20057;-77
2022/06/21 05:38:01;;;;;;;1.10;1.00;;;;;;;16.54;57.21;100078.91;5015382;28;20041;-77
2022/06/21 05:40:56;;;;;;;1.67;1.00;;;;;;;16.36;58.02;100091.22;5032855;28;20065;-77
2022/06/21 05:43:28;;;;;;;1.00;1.00;;;;;;;16.38;57.75;100084.19;5014706;28;20042;-77
2022/06/21 05:45:58;;;;;;;1.30;1.20;;;;;;;16.28;58.24;100082.59;4998171;28;20156;-77
2022/06/21 05:48:26;;;;;;;1.20;1.10;;;;;;;16.15;58.50;100082.84;5032425;28;20029;-77
2022/06/21 05:50:52;;;;;;;1.10;1.00;;;;;;;16.10;58.05;100086.59;5034138;28;20044;-77
2022/06/21 05:53:29;;;;;;;1.40;1.30;;;;;;;15.93;59.31;100081.94;5050935;28;20470;-77
2022/06/21 05:55:55;;;;;;;0.82;0.82;;;;;;;15.97;59.48;100090.41;5034520;28;20072;-77
2022/06/21 05:58:27;;;;;;;3.72;1.15;;;;;;;16.22;59.29;100083.13;5051643;28;20493;-77
2022/06/21 06:01:08;;;;;;;1.10;1.05;;;;;;;16.20;58.96;100090.97;5051736;28;20090;-75
2022/06/21 06:04:19;;;;;;;1.77;0.80;;;;;;;16.40;58.69;100081.91;5014193;28;20044;-76
2022/06/21 06:06:46;;;;;;;1.33;0.80;;;;;;;16.57;57.79;100092.88;5008723;28;20049;-75
2022/06/21 06:09:16;;;;;;;1.20;1.10;;;;;;;16.42;57.63;100099.00;5014056;28;20038;-75
2022/06/21 06:12:00;;;;;;;1.90;1.10;;;;;;;16.25;57.86;100091.56;5012133;28;20033;-75
2022/06/21 06:14:33;;;;;;;1.83;1.15;;;;;;;16.19;58.13;100095.69;5031491;28;20047;-75
2022/06/21 06:17:01;;;;;;;1.25;1.10;;;;;;;16.11;58.41;100090.16;5032802;28;20523;-75
2022/06/21 06:19:41;;;;;;;1.30;1.20;;;;;;;16.36;58.18;100085.69;5033800;28;20082;-75
2022/06/21 06:22:17;;;;;;;1.30;1.10;;;;;;;16.67;57.76;100100.03;5017258;28;20048;-75
2022/06/21 06:24:54;;;;;;;1.83;1.10;;;;;;;16.93;57.25;100097.09;5033476;28;20044;-75
2022/06/21 06:27:45;;;;;;;1.10;1.00;;;;;;;17.34;56.66;100082.41;4997796;28;20053;-75
2022/06/21 06:30:15;;;;;;;1.25;1.15;;;;;;;17.65;55.25;100083.91;5013714;28;20037;-75
2022/06/21 06:32:47;;;;;;;0.93;0.93;;;;;;;17.54;55.33;100083.53;5050108;28;20041;-75
2022/06/21 06:35:17;;;;;;;1.73;1.10;;;;;;;17.61;54.85;100075.47;5016958;28;20420;-75
2022/06/21 06:37:43;;;;;;;0.90;0.90;;;;;;;17.40;54.64;100086.59;5051247;28;20052;-76
2022/06/21 06:40:52;;;;;;;1.45;0.98;;;;;;;17.45;54.83;100096.66;5051103;28;20041;-75
2022/06/21 06:43:46;;;;;;;2.67;1.20;;;;;;;17.63;53.99;100089.81;4960378;28;20142;-76
2022/06/21 06:46:31;;;;;;;1.02;0.70;;;;;;;17.53;53.22;100095.78;4956074;28;20082;-76
2022/06/21 06:49:15;;;;;;;2.30;1.27;;;;;;;17.29;53.54;100095.66;5023696;28;20053;-76
2022/06/21 06:52:05;;;;;;;0.73;0.70;;;;;;;17.20;53.43;100097.72;5013601;28;20033;-76
2022/06/21 06:54:42;;;;;;;1.38;1.05;;;;;;;17.33;53.20;100096.59;4995902;28;20045;-76
2022/06/21 06:57:17;;;;;;;1.48;1.17;;;;;;;17.36;53.09;100098.72;5013990;28;20060;-75
2022/06/21 06:59:43;;;;;;;0.95;0.93;;;;;;;17.17;52.41;100086.13;5030807;28;20575;-76
2022/06/21 07:02:45;;;;;;;1.02;0.93;;;;;;;17.02;52.77;100102.59;5031431;28;20412;-76
2022/06/21 07:05:19;;;;;;;0.75;0.75;;;;;;;16.88;52.06;100100.06;5032947;28;20060;-76
2022/06/21 07:07:52;;;;;;;0.98;0.80;;;;;;;16.73;52.92;100092.34;5050608;28;20041;-76
2022/06/21 07:10:24;;;;;;;1.58;1.20;;;;;;;16.83;52.64;100083.63;5050677;28;20039;-75
2022/06/21 07:12:51;;;;;;;0.98;0.88;;;;;;;16.79;52.67;100086.25;5016208;28;20126;-76
2022/06/21 07:15:26;;;;;;;1.92;0.88;;;;;;;16.75;52.84;100076.19;5033016;28;20067;-76
2022/06/21 07:17:56;;;;;;;1.10;0.85;;;;;;;16.80;52.17;100087.88;5029882;28;20037;-76
2022/06/21 07:20:25;;;;;;;1.00;0.77;;;;;;;16.95;52.33;100082.91;5031000;28;20183;-77
2022/06/21 07:22:55;;;;;;;0.80;0.80;;;;;;;17.18;52.27;100087.78;4996649;28;20037;-77
2022/06/21 07:25:33;;;;;;;2.60;1.00;;;;;;;17.37;50.92;100081.75;4997063;28;20038;-77
2022/06/21 07:28:10;;;;;;;1.13;0.98;;;;;;;17.51;50.36;100084.19;5013175;28;20095;-76
2022/06/21 07:30:39;;;;;;;0.65;0.65;;;;;;;17.57;50.44;100079.28;5007236;28;20037;-77
2022/06/21 07:33:12;;;;;;;0.80;0.80;;;;;;;17.82;49.67;100085.72;5016608;28;20033;-76
2022/06/21 07:35:54;;;;;;;0.90;0.90;;;;;;;17.81;49.11;100089.66;5023297;28;20045;-76
2022/06/21 07:38:33;;;;;;;1.35;1.13;;;;;;;17.85;48.52;100085.84;5012826;28;20508;-76
2022/06/21 07:41:07;;;;;;;0.70;0.70;;;;;;;17.99;47.07;100082.75;5019945;28;20133;-76
2022/06/21 07:43:37;;;;;;;1.13;0.80;;;;;;;18.30;46.93;100085.81;5046483;28;20032;-76
2022/06/21 07:46:05;;;;;;;0.80;0.80;;;;;;;18.36;47.08;100081.63;5052859;28;20075;-76
2022/06/21 07:48:46;;;;;;;0.95;0.90;;;;;;;18.58;46.90;100077.59;5052354;28;20036;-76
2022/06/21 07:51:25;;;;;;;2.60;1.00;;;;;;;18.81;46.40;100100.19;5052937;28;20047;-76
2022/06/21 07:54:10;;;;;;;1.00;1.00;;;;;;;18.80;45.87;100081.88;5034684;28;20041;-76
2022/06/21 07:56:41;;;;;;;1.00;0.90;;;;;;;18.98;46.16;100088.78;5035689;28;20049;-76
2022/06/21 07:59:43;;;;;;;1.10;0.93;;;;;;;19.32;45.04;100089.41;5031348;28;20092;-76
2022/06/21 08:08:45;;;;;;;1.88;0.80;;;;;;;19.76;43.34;100075.53;5032471;28;20100;-76
2022/06/21 08:11:35;;;;;;;1.63;0.80;;;;;;;19.94;42.86;100082.38;5024931;28;20045;-76
2022/06/21 08:14:01;;;;;;;2.88;0.95;;;;;;;20.05;42.12;100086.25;5029887;28;20045;-76
2022/06/21 08:16:33;;;;;;;1.02;0.93;;;;;;;20.08;43.04;100088.31;5047215;28;20043;-76
2022/06/21 08:19:35;;;;;;;2.38;1.08;;;;;;;20.16;41.42;100078.19;5040693;28;20065;-76
2022/06/21 08:22:08;;;;;;;1.10;0.98;;;;;;;20.10;41.55;100087.97;5023176;28;20396;-75
2022/06/21 08:24:55;;;;;;;1.92;1.00;;;;;;;19.98;41.99;100096.41;5035763;28;20499;-76
2022/06/21 08:27:45;;;;;;;0.60;0.57;;;;;;;19.83;41.68;100075.72;5044665;28;20037;-75
2022/06/21 08:30:19;;;;;;;2.95;0.90;;;;;;;19.70;41.31;100088.91;5042363;28;20040;-76
2022/06/21 08:32:47;;;;;;;2.15;1.00;;;;;;;19.51;41.58;100078.41;5022937;28;20037;-75
2022/06/21 08:35:25;;;;;;;2.15;1.10;;;;;;;19.47;42.32;100080.28;5031435;28;20041;-75
2022/06/21 08:37:56;;;;;;;2.28;0.90;;;;;;;19.74;41.94;100097.34;5015594;28;20042;-75
2022/06/21 08:40:40;;;;;;;1.35;1.20;;;;;;;19.95;41.33;100075.63;5032360;28;20093;-76
2022/06/21 08:43:28;;;;;;;1.90;1.30;;;;;;;20.05;41.46;100099.38;5033304;28;20098;-75
2022/06/21 08:46:15;;;;;;;4.43;1.50;;;;;;;20.15;40.68;100093.28;5033300;28;20040;-75
2022/06/21 08:48:50;;;;;;;1.30;1.20;;;;;;;20.27;40.59;100084.81;5020277;28;20054;-75
2022/06/21 08:51:34;;;;;;;1.58;1.00;;;;;;;20.50;40.69;100078.66;5024490;28;20069;-75
2022/06/21 08:54:11;;;;;;;1.00;0.90;;;;;;;20.63;40.39;100085.72;5033366;28;20033;-75
2022/06/21 08:56:47;;;;;;;0.88;0.82;;;;;;;20.07;40.46;100075.56;5032917;28;20490;-75
2022/06/21 08:59:39;;;;;;;0.98;0.98;;;;;;;19.90;40.96;100089.84;5040277;28;20098;-75
2022/06/21 09:02:10;;;;;;;1.10;1.00;;;;;;;19.85;41.42;100092.88;5024906;28;20141;-76
2022/06/21 09:05:07;;;;;;;2.55;0.95;;;;;;;19.71;40.96;100081.38;5043965;28;20590;-74
2022/06/21 09:07:53;;;;;;;2.20;1.20;;;;;;;19.81;40.48;100092.81;5052943;28;20045;-75
2022/06/21 09:10:51;;;;;;;1.30;1.20;;;;;;;19.94;40.93;100101.06;5035072;28;20135;-75
2022/06/21 09:13:24;;;;;;;2.15;1.00;;;;;;;19.94;40.84;100095.50;5026299;28;20049;-75
2022/06/21 09:16:01;;;;;;;0.95;0.82;;;;;;;19.79;41.22;100094.31;5045565;28;20057;-75
2022/06/21 09:19:00;;;;;;;1.83;1.00;;;;;;;19.71;41.48;100089.72;5033384;28;20102;-75
2022/06/21 09:21:51;;;;;;;0.85;0.70;;;;;;;19.61;41.15;100095.78;5031626;28;20043;-75
2022/06/21 09:24:31;;;;;;;1.60;1.20;;;;;;;19.54;41.25;100118.66;5033848;28;20049;-75
2022/06/21 09:27:00;;;;;;;0.82;0.82;;;;;;;19.37;41.63;100105.81;5032834;28;20068;-75
2022/06/21 09:29:32;;;;;;;1.33;0.90;;;;;;;19.10;41.66;100092.72;5023643;28;20036;-76
2022/06/21 09:32:32;;;;;;;2.30;1.02;;;;;;;18.82;42.23;100099.00;5052677;28;20454;-75
2022/06/21 09:35:02;;;;;;;1.23;1.13;;;;;;;18.53;42.52;100096.44;5040516;28;20052;-75
2022/06/21 09:37:45;;;;;;;1.10;1.00;;;;;;;18.28;43.00;100099.22;5032768;28;20099;-75
2022/06/21 09:40:27;;;;;;;1.40;1.30;;;;;;;17.95;43.38;100090.16;5032492;28;20071;-75
2022/06/21 09:43:11;;;;;;;0.95;0.80;;;;;;;17.83;44.25;100090.94;5014656;28;20129;-75
2022/06/21 09:45:47;;;;;;;0.93;0.75;;;;;;;17.73;42.65;100092.19;5033318;28;20044;-75
2022/06/21 09:48:17;;;;;;;1.83;0.90;;;;;;;17.47;43.90;100088.81;5044267;28;20550;-75
2022/06/21 09:51:11;;;;;;;1.27;0.90;;;;;;;17.46;44.03;100107.44;5036532;28;20084;-75
2022/06/21 09:53:58;;;;;;;1.10;1.00;;;;;;;17.38;44.01;100096.41;5031072;28;20466;-75
2022/06/21 09:56:38;;;;;;;1.08;0.98;;;;;;;17.42;44.04;100108.44;5036884;28;20052;-75
2022/06/21 09:59:04;;;;;;;0.70;0.70;;;;;;;17.39;44.04;100093.31;5017865;28;20064;-75
2022/06/21 10:01:42;;;;;;;0.70;0.70;;;;;;;17.40;44.00;100099.66;5046023;28;20041;-75
2022/06/21 10:04:11;;;;;;;3.83;1.88;;;;;;;17.41;44.17;100109.59;5042546;28;20132;-75
2022/06/21 10:06:41;;;;;;;0.90;0.70;;;;;;;17.37;44.13;100106.72;5037688;28;20096;-75
2022/06/21 10:09:13;;;;;;;0.30;0.30;;;;;;;17.44;44.74;100100.59;5035314;28;20056;-75
2022/06/21 10:12:01;;;;;;;1.77;0.85;;;;;;;17.47;43.92;100097.13;5043606;28;20056;-76
2022/06/21 10:14:36;;;;;;;1.58;1.20;;;;;;;17.43;44.36;100104.53;5025474;28;20136;-75
2022/06/21 10:17:13;;;;;;;1.05;0.70;;;;;;;17.44;44.28;100092.28;5031875;28;20041;-75
2022/06/21 10:19:51;;;;;;;0.98;0.88;;;;;;;17.46;44.47;100098.28;5036740;28;20288;-75
2022/06/21 10:22:29;;;;;;;1.95;1.00;;;;;;;17.48;43.81;100096.78;5030207;28;20098;-75
2022/06/21 10:25:08;;;;;;;1.02;0.57;;;;;;;17.40;44.12;100102.44;5028937;28;20076;-75
2022/06/21 10:27:51;;;;;;;1.35;0.82;;;;;;;17.34;43.75;100093.50;5037564;28;20043;-75
2022/06/21 10:30:17;;;;;;;1.38;1.20;;;;;;;17.32;44.27;100090.25;5016148;28;20063;-75
2022/06/21 10:33:14;;;;;;;1.55;1.00;;;;;;;17.33;44.90;100082.75;5051363;28;20037;-74
2022/06/21 10:36:05;;;;;;;0.60;0.47;;;;;;;17.37;44.54;100089.25;5031840;28;20528;-75
2022/06/21 10:38:58;;;;;;;0.98;0.90;;;;;;;17.35;43.98;100099.84;5024599;28;20087;-75
2022/06/21 10:41:38;;;;;;;1.65;1.25;;;;;;;17.27;44.18;100084.91;5051330;28;20087;-75
2022/06/21 10:44:42;;;;;;;1.75;0.90;;;;;;;17.27;44.31;100095.19;5013809;28;20033;-76
2022/06/21 10:47:19;;;;;;;0.38;0.38;;;;;;;17.18;44.41;100101.66;5011228;28;20103;-76
2022/06/21 10:49:45;;;;;;;1.48;0.80;;;;;;;17.15;44.52;100085.66;5017590;28;20037;-76
2022/06/21 10:52:16;;;;;;;1.55;1.10;;;;;;;17.12;44.69;100097.44;5036385;28;21084;-76
2022/06/21 10:55:14;;;;;;;1.95;1.20;;;;;;;16.99;44.99;100112.38;5042554;28;20455;-77
2022/06/21 10:57:54;;;;;;;2.00;1.08;;;;;;;16.86;44.73;100094.88;5044180;28;20094;-76
2022/06/21 11:04:06;;;;;;;1.85;1.38;;;;;;;16.72;44.95;100097.06;5035551;28;20072;-76
2022/06/21 11:06:51;;;;;;;0.68;0.68;;;;;;;16.73;44.67;100089.56;5032748;28;20535;-75
2022/06/21 11:09:36;;;;;;;1.20;1.00;;;;;;;16.84;44.14;100104.66;5012438;28;20037;-75
2022/06/21 11:15:24;;;;;;;0.65;0.65;;;;;;;17.00;43.14;100080.72;5021816;28;20053;-76
2022/06/21 11:17:57;;;;;;;1.42;1.20;;;;;;;17.09;43.24;100086.22;5018806;28;20077;-77
2022/06/21 11:20:41;;;;;;;1.60;1.10;;;;;;;17.11;44.00;100098.59;5013432;28;20095;-77
2022/06/21 11:23:27;;;;;;;1.77;1.30;;;;;;;17.11;43.70;100070.88;5015653;28;20049;-77
2022/06/21 11:26:10;;;;;;;2.28;1.20;;;;;;;17.01;43.43;100071.28;5022312;28;20086;-77
2022/06/21 11:28:48;;;;;;;3.30;1.30;;;;;;;17.01;43.22;100093.47;5045728;28;20068;-77
2022/06/21 11:31:45;;;;;;;1.20;0.90;;;;;;;16.96;43.18;100079.78;5032355;28;20051;-77
2022/06/21 11:34:19;;;;;;;1.85;1.20;;;;;;;16.91;43.04;100082.75;5019000;28;20050;-78
2022/06/21 11:36:54;;;;;;;1.70;1.58;;;;;;;16.86;43.24;100074.66;5040239;28;20530;-77
2022/06/21 11:39:41;;;;;;;2.10;1.20;;;;;;;16.80;43.61;100059.34;5040989;28;20045;-77
2022/06/21 11:42:15;;;;;;;1.00;0.90;;;;;;;16.91;43.79;100068.09;5068116;28;20032;-77
2022/06/21 11:45:16;;;;;;;2.60;1.50;;;;;;;17.02;43.51;100078.44;5025049;28;20041;-77
2022/06/21 11:48:07;;;;;;;1.52;1.30;;;;;;;16.98;43.70;100080.25;5045775;28;20033;-77
2022/06/21 11:51:00;;;;;;;2.63;1.00;;;;;;;16.97;43.09;100081.41;5045381;28;20053;-78
2022/06/21 11:53:43;;;;;;;1.33;0.93;;;;;;;16.90;43.23;100066.47;5043465;28;20048;-79
2022/06/21 11:56:30;;;;;;;2.80;1.35;;;;;;;16.92;43.50;100089.13;5034515;28;20515;-78
2022/06/21 11:59:02;;;;;;;3.15;1.60;;;;;;;16.90;43.69;100072.03;5029590;28;20419;-78
2022/06/21 12:01:34;;;;;;;1.08;0.47;;;;;;;16.88;44.09;100091.75;5054506;28;20106;-78
2022/06/21 12:04:12;;;;;;;0.82;0.73;;;;;;;16.89;44.15;100079.53;5053571;28;20041;-77
2022/06/21 12:06:45;;;;;;;2.00;1.58;;;;;;;16.87;44.19;100082.63;5051204;28;20037;-77
2022/06/21 12:09:27;;;;;;;2.50;1.67;;;;;;;16.81;44.19;100092.28;5016477;28;20428;-77
2022/06/21 12:11:58;;;;;;;0.80;0.75;;;;;;;16.77;44.30;100083.00;5033959;28;20412;-78
2022/06/21 12:14:42;;;;;;;4.80;1.85;;;;;;;16.74;44.17;100072.59;5050579;28;20109;-78
2022/06/21 12:17:20;;;;;;;1.25;0.82;;;;;;;16.72;44.24;100080.44;5051500;28;20080;-78
2022/06/21 12:19:50;;;;;;;3.22;1.30;;;;;;;16.71;44.39;100083.56;5017096;28;20042;-79
2022/06/21 12:22:21;;;;;;;3.20;0.80;;;;;;;16.71;44.26;100078.81;5039117;28;20136;-78
2022/06/21 12:24:48;;;;;;;2.25;2.00;;;;;;;16.71;43.83;100089.09;5043151;28;20532;-77